Time,TemperatureF,DewpointF,PressureIn,WindDirection,WindDirectionDegrees,WindSpeedMPH,WindSpeedGustMPH,Humidity,HourlyPrecipIn,Conditions,Clouds,dailyrainin,SoftwareType,DateUTC
2013-09-06 00:00:00,69.0,61.5,30.17,West,270,0.0,0.0,77,0.00,,,0.00,Weather View 32 v70,2013-09-06 04:00:00,
2013-09-06 00:05:00,69.0,62.2,30.17,West,270,0.0,0.0,79,0.00,,,0.00,Weather View 32 v70,2013-09-06 04:05:00,
2013-09-06 00:10:00,69.0,61.5,30.17,West,270,0.0,0.0,77,0.00,,,0.00,Weather View 32 v70,2013-09-06 04:10:00,
2013-09-06 00:15:00,68.0,61.2,30.17,West,270,0.0,0.0,79,0.00,,,0.00,Weather View 32 v70,2013-09-06 04:15:00,
2013-09-06 00:20:00,69.0,61.5,30.17,West,270,0.0,0.0,77,0.00,,,0.00,Weather View 32 v70,2013-09-06 04:20:00,
2013-09-06 00:25:00,68.0,61.2,30.17,West,270,0.0,0.0,79,0.00,,,0.00,Weather View 32 v70,2013-09-06 04:25:00,
2013-09-06 00:30:00,68.0,60.5,30.17,West,270,0.0,0.0,77,0.00,,,0.00,Weather View 32 v70,2013-09-06 04:30:00,
2013-09-06 00:35:00,68.0,61.2,30.17,West,270,0.0,0.0,79,0.00,,,0.00,Weather View 32 v70,2013-09-06 04:35:00,
2013-09-06 00:40:00,68.0,60.5,30.17,West,270,0.0,0.0,77,0.00,,,0.00,Weather View 32 v70,2013-09-06 04:40:00,
2013-09-06 00:45:00,68.0,61.2,30.17,West,270,0.0,0.0,79,0.00,,,0.00,Weather View 32 v70,2013-09-06 04:45:00,
2013-09-06 00:50:00,68.0,60.5,30.17,West,270,0.0,0.0,77,0.00,,,0.00,Weather View 32 v70,2013-09-06 04:50:00,
2013-09-06 00:55:00,68.0,61.2,30.18,West,270,0.0,0.0,79,0.00,,,0.00,Weather View 32 v70,2013-09-06 04:55:00,
2013-09-06 01:00:00,68.0,60.5,30.18,West,270,0.0,0.0,77,0.00,,,0.00,Weather View 32 v70,2013-09-06 05:00:00,
2013-09-06 01:05:00,68.0,61.2,30.18,West,270,0.0,0.0,79,0.00,,,0.00,Weather View 32 v70,2013-09-06 05:05:00,
2013-09-06 01:10:00,68.0,60.5,30.18,West,270,0.0,0.0,77,0.00,,,0.00,Weather View 32 v70,2013-09-06 05:10:00,
2013-09-06 01:15:00,68.0,61.2,30.18,West,270,0.0,0.0,79,0.00,,,0.00,Weather View 32 v70,2013-09-06 05:15:00,
2013-09-06 01:20:00,68.0,60.1,30.18,West,270,0.0,0.0,76,0.00,,,0.00,Weather View 32 v70,2013-09-06 05:20:00,
2013-09-06 01:25:00,68.0,61.2,30.18,West,270,0.0,0.0,79,0.00,,,0.00,Weather View 32 v70,2013-09-06 05:25:00,
2013-09-06 01:35:00,69.0,62.2,30.18,West,270,0.0,0.0,79,0.00,,,0.00,Weather View 32 v70,2013-09-06 05:35:00,
2013-09-06 01:40:00,69.0,61.1,30.18,West,270,0.0,0.0,76,0.00,,,0.00,Weather View 32 v70,2013-09-06 05:40:00,
2013-09-06 01:45:00,69.0,62.2,30.17,West,270,0.0,0.0,79,0.00,,,0.00,Weather View 32 v70,2013-09-06 05:45:00,
2013-09-06 01:50:00,69.0,61.1,30.17,West,270,0.0,0.0,76,0.00,,,0.00,Weather View 32 v70,2013-09-06 05:50:00,
2013-09-06 01:55:00,69.0,62.2,30.18,West,270,0.0,0.0,79,0.00,,,0.00,Weather View 32 v70,2013-09-06 05:55:00,
2013-09-06 02:00:00,69.0,61.1,30.18,West,270,0.0,0.0,76,0.00,,,0.00,Weather View 32 v70,2013-09-06 06:00:00,
2013-09-06 02:05:00,69.0,62.2,30.18,West,270,0.0,0.0,79,0.00,,,0.00,Weather View 32 v70,2013-09-06 06:05:00,
2013-09-06 02:10:00,69.0,61.1,30.18,West,270,0.0,0.0,76,0.00,,,0.00,Weather View 32 v70,2013-09-06 06:10:00,
2013-09-06 02:15:00,69.0,62.2,30.18,West,270,0.0,0.0,79,0.00,,,0.00,Weather View 32 v70,2013-09-06 06:15:00,
2013-09-06 02:20:00,69.0,61.1,30.18,West,270,0.0,0.0,76,0.00,,,0.00,Weather View 32 v70,2013-09-06 06:20:00,
2013-09-06 02:25:00,69.0,62.2,30.18,West,270,0.0,0.0,79,0.00,,,0.00,Weather View 32 v70,2013-09-06 06:25:00,
2013-09-06 02:30:00,69.0,61.1,30.18,West,270,0.0,0.0,76,0.00,,,0.00,Weather View 32 v70,2013-09-06 06:30:00,
2013-09-06 02:35:00,69.0,61.8,30.18,West,270,0.0,0.0,78,0.01,,,0.01,Weather View 32 v70,2013-09-06 06:35:00,
2013-09-06 02:45:00,69.0,61.8,30.18,West,270,0.0,0.0,78,0.01,,,0.01,Weather View 32 v70,2013-09-06 06:45:00,
2013-09-06 02:50:00,69.0,61.1,30.18,West,270,0.0,0.0,76,0.01,,,0.01,Weather View 32 v70,2013-09-06 06:50:00,
2013-09-06 02:55:00,69.0,61.8,30.18,West,270,0.0,0.0,78,0.01,,,0.01,Weather View 32 v70,2013-09-06 06:55:00,
2013-09-06 03:00:00,69.0,61.1,30.18,West,270,0.0,0.0,76,0.01,,,0.01,Weather View 32 v70,2013-09-06 07:00:00,
2013-09-06 03:05:00,69.0,61.8,30.18,West,270,0.0,0.0,78,0.01,,,0.01,Weather View 32 v70,2013-09-06 07:05:00,
2013-09-06 03:10:00,69.0,61.1,30.18,West,270,0.0,0.0,76,0.01,,,0.01,Weather View 32 v70,2013-09-06 07:10:00,
2013-09-06 03:15:00,69.0,61.8,30.18,West,270,0.0,0.0,78,0.01,,,0.01,Weather View 32 v70,2013-09-06 07:15:00,
2013-09-06 03:20:00,69.0,61.1,30.18,West,270,0.0,0.0,76,0.01,,,0.01,Weather View 32 v70,2013-09-06 07:20:00,
2013-09-06 03:30:00,69.0,61.1,30.18,West,270,0.0,0.0,76,0.01,,,0.01,Weather View 32 v70,2013-09-06 07:30:00,
2013-09-06 03:35:00,69.0,62.2,30.18,West,270,0.0,0.0,79,0.00,,,0.01,Weather View 32 v70,2013-09-06 07:35:00,
2013-09-06 03:40:00,69.0,61.1,30.18,West,270,0.0,0.0,76,0.00,,,0.01,Weather View 32 v70,2013-09-06 07:40:00,
2013-09-06 03:45:00,69.0,61.8,30.19,West,270,0.0,0.0,78,0.00,,,0.01,Weather View 32 v70,2013-09-06 07:45:00,
2013-09-06 03:50:00,69.0,61.1,30.19,West,270,0.0,0.0,76,0.00,,,0.01,Weather View 32 v70,2013-09-06 07:50:00,
2013-09-06 03:55:00,69.0,62.2,30.19,West,270,0.0,0.0,79,0.00,,,0.01,Weather View 32 v70,2013-09-06 07:55:00,
2013-09-06 04:05:00,69.0,62.2,30.19,West,270,0.0,0.0,79,0.00,,,0.01,Weather View 32 v70,2013-09-06 08:05:00,
2013-09-06 04:10:00,69.0,61.1,30.19,West,270,0.0,0.0,76,0.00,,,0.01,Weather View 32 v70,2013-09-06 08:10:00,
2013-09-06 04:15:00,69.0,62.2,30.20,West,270,0.0,0.0,79,0.00,,,0.01,Weather View 32 v70,2013-09-06 08:15:00,
2013-09-06 04:20:00,69.0,61.1,30.20,West,270,0.0,0.0,76,0.00,,,0.01,Weather View 32 v70,2013-09-06 08:20:00,
2013-09-06 04:25:00,69.0,62.2,30.19,West,270,0.0,0.0,79,0.00,,,0.01,Weather View 32 v70,2013-09-06 08:25:00,
2013-09-06 04:30:00,69.0,61.1,30.19,West,270,0.0,0.0,76,0.00,,,0.01,Weather View 32 v70,2013-09-06 08:30:00,
2013-09-06 04:35:00,69.0,62.2,30.19,West,270,0.0,0.0,79,0.00,,,0.01,Weather View 32 v70,2013-09-06 08:35:00,
2013-09-06 04:40:00,69.0,61.1,30.19,West,270,0.0,0.0,76,0.00,,,0.01,Weather View 32 v70,2013-09-06 08:40:00,
2013-09-06 04:45:00,69.0,62.2,30.20,West,270,0.0,0.0,79,0.00,,,0.01,Weather View 32 v70,2013-09-06 08:45:00,
2013-09-06 04:50:00,69.0,61.1,30.20,West,270,0.0,0.0,76,0.00,,,0.01,Weather View 32 v70,2013-09-06 08:50:00,
2013-09-06 04:55:00,69.0,62.2,30.20,West,270,0.0,0.0,79,0.00,,,0.01,Weather View 32 v70,2013-09-06 08:55:00,
2013-09-06 05:05:00,68.0,61.2,30.20,West,270,0.0,0.0,79,0.00,,,0.01,Weather View 32 v70,2013-09-06 09:05:00,
2013-09-06 05:10:00,68.0,60.1,30.20,West,270,0.0,0.0,76,0.00,,,0.01,Weather View 32 v70,2013-09-06 09:10:00,
2013-09-06 05:15:00,68.0,61.2,30.21,West,270,0.0,0.0,79,0.00,,,0.01,Weather View 32 v70,2013-09-06 09:15:00,
2013-09-06 05:20:00,68.0,60.1,30.21,West,270,0.0,0.0,76,0.00,,,0.01,Weather View 32 v70,2013-09-06 09:20:00,
2013-09-06 05:25:00,68.0,61.2,30.21,West,270,0.0,0.0,79,0.00,,,0.01,Weather View 32 v70,2013-09-06 09:25:00,
2013-09-06 05:30:00,68.0,60.1,30.21,West,270,0.0,0.0,76,0.00,,,0.01,Weather View 32 v70,2013-09-06 09:30:00,
2013-09-06 05:35:00,68.0,61.2,30.21,West,270,0.0,0.0,79,0.00,,,0.01,Weather View 32 v70,2013-09-06 09:35:00,
2013-09-06 05:40:00,68.0,60.5,30.21,West,270,0.0,0.0,77,0.00,,,0.01,Weather View 32 v70,2013-09-06 09:40:00,
2013-09-06 05:45:00,68.0,61.2,30.21,West,270,0.0,0.0,79,0.00,,,0.01,Weather View 32 v70,2013-09-06 09:45:00,
2013-09-06 05:55:00,68.0,61.2,30.21,West,270,0.0,0.0,79,0.00,,,0.01,Weather View 32 v70,2013-09-06 09:55:00,
2013-09-06 06:00:00,68.0,60.5,30.21,West,270,0.0,0.0,77,0.00,,,0.01,Weather View 32 v70,2013-09-06 10:00:00,
2013-09-06 06:05:00,68.0,61.2,30.22,West,270,0.0,0.0,79,0.00,,,0.01,Weather View 32 v70,2013-09-06 10:05:00,
2013-09-06 06:10:00,68.0,60.9,30.22,West,270,0.0,0.0,78,0.00,,,0.01,Weather View 32 v70,2013-09-06 10:10:00,
2013-09-06 06:15:00,68.0,61.2,30.22,West,270,0.0,0.0,79,0.00,,,0.01,Weather View 32 v70,2013-09-06 10:15:00,
2013-09-06 06:20:00,67.0,59.5,30.22,West,270,0.0,0.0,77,0.00,,,0.01,Weather View 32 v70,2013-09-06 10:20:00,
2013-09-06 06:25:00,67.0,60.2,30.22,West,270,0.0,0.0,79,0.00,,,0.01,Weather View 32 v70,2013-09-06 10:25:00,
2013-09-06 06:30:00,67.0,59.5,30.22,West,270,0.0,0.0,77,0.00,,,0.01,Weather View 32 v70,2013-09-06 10:30:00,
2013-09-06 06:35:00,67.0,60.2,30.23,West,270,0.0,0.0,79,0.00,,,0.01,Weather View 32 v70,2013-09-06 10:35:00,
2013-09-06 06:45:00,67.0,60.2,30.23,West,270,0.0,0.0,79,0.00,,,0.01,Weather View 32 v70,2013-09-06 10:45:00,
2013-09-06 06:50:00,67.0,59.9,30.23,West,270,0.0,0.0,78,0.00,,,0.01,Weather View 32 v70,2013-09-06 10:50:00,
2013-09-06 06:55:00,67.0,60.2,30.24,West,270,0.0,0.0,79,0.00,,,0.01,Weather View 32 v70,2013-09-06 10:55:00,
2013-09-06 07:00:00,67.0,59.9,30.24,West,270,0.0,0.0,78,0.00,,,0.01,Weather View 32 v70,2013-09-06 11:00:00,
2013-09-06 07:05:00,67.0,60.2,30.24,West,270,0.0,0.0,79,0.00,,,0.01,Weather View 32 v70,2013-09-06 11:05:00,
2013-09-06 07:10:00,67.0,59.9,30.24,West,270,0.0,0.0,78,0.00,,,0.01,Weather View 32 v70,2013-09-06 11:10:00,
2013-09-06 07:15:00,67.0,60.2,30.24,West,270,0.0,0.0,79,0.00,,,0.01,Weather View 32 v70,2013-09-06 11:15:00,
2013-09-06 07:25:00,67.0,60.2,30.25,West,270,0.0,0.0,79,0.00,,,0.01,Weather View 32 v70,2013-09-06 11:25:00,
2013-09-06 07:30:00,67.0,59.5,30.25,West,270,0.0,0.0,77,0.00,,,0.01,Weather View 32 v70,2013-09-06 11:30:00,
2013-09-06 07:35:00,66.0,59.3,30.25,West,270,0.0,0.0,79,0.00,,,0.01,Weather View 32 v70,2013-09-06 11:35:00,
2013-09-06 07:40:00,66.0,58.6,30.25,West,270,0.0,0.0,77,0.00,,,0.01,Weather View 32 v70,2013-09-06 11:40:00,
2013-09-06 07:45:00,67.0,60.2,30.25,West,270,0.0,0.0,79,0.00,,,0.01,Weather View 32 v70,2013-09-06 11:45:00,
2013-09-06 07:50:00,67.0,59.5,30.25,West,270,0.0,0.0,77,0.00,,,0.01,Weather View 32 v70,2013-09-06 11:50:00,
2013-09-06 08:00:00,67.0,59.5,30.26,West,270,0.0,0.0,77,0.00,,,0.01,Weather View 32 v70,2013-09-06 12:00:00,
2013-09-06 08:05:00,67.0,60.2,30.26,West,270,0.0,0.0,79,0.00,,,0.01,Weather View 32 v70,2013-09-06 12:05:00,
2013-09-06 08:10:00,67.0,59.5,30.26,West,270,0.0,0.0,77,0.00,,,0.01,Weather View 32 v70,2013-09-06 12:10:00,
2013-09-06 08:15:00,67.0,60.2,30.26,West,270,0.0,0.0,79,0.00,,,0.01,Weather View 32 v70,2013-09-06 12:15:00,
2013-09-06 08:20:00,67.0,59.5,30.26,West,270,0.0,0.0,77,0.00,,,0.01,Weather View 32 v70,2013-09-06 12:20:00,
2013-09-06 08:25:00,67.0,60.2,30.26,West,270,0.0,0.0,79,0.00,,,0.01,Weather View 32 v70,2013-09-06 12:25:00,
2013-09-06 08:30:00,68.0,60.5,30.26,West,270,0.0,0.0,77,0.00,,,0.01,Weather View 32 v70,2013-09-06 12:30:00,
2013-09-06 08:35:00,68.0,61.2,30.26,West,270,0.0,0.0,79,0.00,,,0.01,Weather View 32 v70,2013-09-06 12:35:00,
2013-09-06 08:45:00,68.0,61.2,30.26,West,270,0.0,0.0,79,0.00,,,0.01,Weather View 32 v70,2013-09-06 12:45:00,
2013-09-06 08:50:00,69.0,61.8,30.26,West,270,0.0,0.0,78,0.00,,,0.01,Weather View 32 v70,2013-09-06 12:50:00,
2013-09-06 08:55:00,69.0,62.2,30.25,West,270,0.0,0.0,79,0.00,,,0.01,Weather View 32 v70,2013-09-06 12:55:00,
2013-09-06 09:00:00,69.0,61.8,30.25,West,270,0.0,0.0,78,0.00,,,0.01,Weather View 32 v70,2013-09-06 13:00:00,
2013-09-06 09:05:00,70.0,63.5,30.26,West,270,0.0,0.0,80,0.00,,,0.01,Weather View 32 v70,2013-09-06 13:05:00,
2013-09-06 09:15:00,70.0,63.5,30.26,West,270,0.0,0.0,80,0.00,,,0.01,Weather View 32 v70,2013-09-06 13:15:00,
2013-09-06 09:20:00,70.0,63.5,30.26,West,270,0.0,0.0,80,0.00,,,0.01,Weather View 32 v70,2013-09-06 13:20:00,
2013-09-06 09:25:00,70.0,63.5,30.25,NW,315,0.0,0.0,80,0.00,,,0.01,Weather View 32 v70,2013-09-06 13:25:00,
2013-09-06 09:30:00,71.0,64.5,30.25,NW,315,0.0,0.0,80,0.00,,,0.01,Weather View 32 v70,2013-09-06 13:30:00,
2013-09-06 09:35:00,71.0,64.5,30.25,NW,315,0.0,0.0,80,0.00,,,0.01,Weather View 32 v70,2013-09-06 13:35:00,
2013-09-06 09:40:00,71.0,64.5,30.25,NW,315,0.0,0.0,80,0.00,,,0.01,Weather View 32 v70,2013-09-06 13:40:00,
2013-09-06 09:45:00,72.0,65.5,30.25,NW,315,0.0,0.0,80,0.00,,,0.01,Weather View 32 v70,2013-09-06 13:45:00,
2013-09-06 09:50:00,73.0,66.4,30.25,NW,315,0.0,0.0,80,0.00,,,0.01,Weather View 32 v70,2013-09-06 13:50:00,
2013-09-06 09:55:00,74.0,67.8,30.24,South,180,0.0,3.0,81,0.00,,,0.01,Weather View 32 v70,2013-09-06 13:55:00,
2013-09-06 10:00:00,75.0,68.4,30.24,SW,225,0.0,3.0,80,0.00,,,0.01,Weather View 32 v70,2013-09-06 14:00:00,
2013-09-06 10:05:00,76.0,70.1,30.23,West,270,0.0,3.0,82,0.00,,,0.01,Weather View 32 v70,2013-09-06 14:05:00,
2013-09-06 10:10:00,77.0,70.7,30.23,West,270,0.0,3.0,81,0.00,,,0.01,Weather View 32 v70,2013-09-06 14:10:00,
2013-09-06 10:15:00,79.0,73.0,30.22,West,270,0.0,3.0,82,0.00,,,0.01,Weather View 32 v70,2013-09-06 14:15:00,
2013-09-06 10:25:00,81.0,75.0,30.21,WNW,292,0.0,3.0,82,0.00,,,0.01,Weather View 32 v70,2013-09-06 14:25:00,
2013-09-06 10:30:00,81.0,75.0,30.21,NW,315,0.0,4.0,82,0.00,,,0.01,Weather View 32 v70,2013-09-06 14:30:00,
2013-09-06 10:35:00,82.0,75.9,30.21,SW,225,0.0,4.0,82,0.00,,,0.01,Weather View 32 v70,2013-09-06 14:35:00,
2013-09-06 10:40:00,83.0,76.9,30.21,West,270,0.0,4.0,82,0.00,,,0.01,Weather View 32 v70,2013-09-06 14:40:00,
2013-09-06 10:45:00,84.0,78.3,30.21,West,270,0.0,4.0,83,0.00,,,0.01,Weather View 32 v70,2013-09-06 14:45:00,
2013-09-06 10:50:00,84.0,78.3,30.21,West,270,0.0,4.0,83,0.00,,,0.01,Weather View 32 v70,2013-09-06 14:50:00,
2013-09-06 10:55:00,85.0,79.2,30.21,SE,135,0.0,4.0,83,0.00,,,0.01,Weather View 32 v70,2013-09-06 14:55:00,
2013-09-06 11:05:00,87.0,81.2,30.20,South,180,0.0,4.0,83,0.00,,,0.01,Weather View 32 v70,2013-09-06 15:05:00,
2013-09-06 11:10:00,87.0,81.2,30.20,NW,315,0.0,4.0,83,0.00,,,0.01,Weather View 32 v70,2013-09-06 15:10:00,
2013-09-06 11:15:00,88.0,82.2,30.20,SW,225,0.0,4.0,83,0.00,,,0.01,Weather View 32 v70,2013-09-06 15:15:00,
2013-09-06 11:20:00,88.0,82.2,30.20,SE,135,0.0,4.0,83,0.00,,,0.01,Weather View 32 v70,2013-09-06 15:20:00,
2013-09-06 11:25:00,88.0,82.2,30.20,South,180,0.0,4.0,83,0.00,,,0.01,Weather View 32 v70,2013-09-06 15:25:00,
2013-09-06 11:30:00,88.0,82.2,30.20,NW,315,0.0,4.0,83,0.00,,,0.01,Weather View 32 v70,2013-09-06 15:30:00,
2013-09-06 11:35:00,88.0,82.2,30.21,South,180,0.0,0.0,83,0.00,,,0.01,Weather View 32 v70,2013-09-06 15:35:00,
2013-09-06 11:40:00,88.0,82.2,30.21,West,270,0.0,5.0,83,0.00,,,0.01,Weather View 32 v70,2013-09-06 15:40:00,
2013-09-06 11:50:00,88.0,82.2,30.21,NE,45,0.0,5.0,83,0.00,,,0.01,Weather View 32 v70,2013-09-06 15:50:00,
2013-09-06 11:55:00,89.0,83.1,30.20,NE,45,0.0,5.0,83,0.00,,,0.01,Weather View 32 v70,2013-09-06 15:55:00,
2013-09-06 12:00:00,89.0,83.1,30.20,East,90,0.0,5.0,83,0.00,,,0.01,Weather View 32 v70,2013-09-06 16:00:00,
2013-09-06 12:05:00,89.0,83.1,30.20,SW,225,0.0,5.0,83,0.00,,,0.01,Weather View 32 v70,2013-09-06 16:05:00,
2013-09-06 12:10:00,89.0,83.1,30.20,West,270,0.0,5.0,83,0.00,,,0.01,Weather View 32 v70,2013-09-06 16:10:00,
2013-09-06 12:20:00,89.0,83.1,30.20,SW,225,0.0,5.0,83,0.00,,,0.01,Weather View 32 v70,2013-09-06 16:20:00,
2013-09-06 12:25:00,89.0,83.1,30.20,SW,225,0.0,5.0,83,0.00,,,0.01,Weather View 32 v70,2013-09-06 16:25:00,
2013-09-06 12:30:00,88.0,82.2,30.20,SW,225,0.0,5.0,83,0.00,,,0.01,Weather View 32 v70,2013-09-06 16:30:00,
2013-09-06 12:35:00,89.0,83.1,30.19,SW,225,0.0,5.0,83,0.00,,,0.01,Weather View 32 v70,2013-09-06 16:35:00,
2013-09-06 12:41:00,88.0,82.2,30.19,West,270,0.0,0.0,83,0.00,,,0.01,Weather View 32 v70,2013-09-06 16:41:00,
2013-09-06 12:50:00,88.0,82.2,30.19,West,270,0.0,0.0,83,0.00,,,0.01,Weather View 32 v70,2013-09-06 16:50:00,
2013-09-06 12:55:00,89.0,83.1,30.19,East,90,0.0,0.0,83,0.00,,,0.01,Weather View 32 v70,2013-09-06 16:55:00,
2013-09-06 13:00:00,89.0,83.1,30.19,SE,135,0.0,0.0,83,0.00,,,0.01,Weather View 32 v70,2013-09-06 17:00:00,
2013-09-06 13:10:00,89.0,83.1,30.19,West,270,0.0,0.0,83,0.00,,,0.01,Weather View 32 v70,2013-09-06 17:10:00,
2013-09-06 13:15:00,89.0,83.1,30.19,West,270,0.0,0.0,83,0.00,,,0.01,Weather View 32 v70,2013-09-06 17:15:00,
2013-09-06 13:20:00,88.0,82.2,30.19,NW,315,0.0,2.0,83,0.00,,,0.01,Weather View 32 v70,2013-09-06 17:20:00,
2013-09-06 13:25:00,89.0,83.1,30.18,NW,315,0.0,2.0,83,0.00,,,0.01,Weather View 32 v70,2013-09-06 17:25:00,
2013-09-06 13:30:00,88.0,82.2,30.18,East,90,0.0,2.0,83,0.00,,,0.01,Weather View 32 v70,2013-09-06 17:30:00,
2013-09-06 13:35:00,89.0,83.1,30.19,East,90,0.0,2.0,83,0.00,,,0.01,Weather View 32 v70,2013-09-06 17:35:00,
2013-09-06 13:41:00,89.0,83.1,30.19,East,90,0.0,2.0,83,0.00,,,0.01,Weather View 32 v70,2013-09-06 17:41:00,
2013-09-06 13:50:00,89.0,83.1,30.18,West,270,0.0,3.0,83,0.00,,,0.01,Weather View 32 v70,2013-09-06 17:50:00,
2013-09-06 13:55:00,89.0,83.1,30.17,West,270,0.0,3.0,83,0.00,,,0.01,Weather View 32 v70,2013-09-06 17:55:00,
2013-09-06 14:00:00,89.0,83.1,30.17,West,270,0.0,3.0,83,0.00,,,0.01,Weather View 32 v70,2013-09-06 18:00:00,
2013-09-06 14:05:00,90.0,84.1,30.16,SW,225,0.0,3.0,83,0.00,,,0.01,Weather View 32 v70,2013-09-06 18:05:00,
2013-09-06 14:10:00,90.0,84.1,30.16,West,270,0.0,3.0,83,0.00,,,0.01,Weather View 32 v70,2013-09-06 18:10:00,
2013-09-06 14:15:00,91.0,85.1,30.16,SE,135,0.0,3.0,83,0.00,,,0.01,Weather View 32 v70,2013-09-06 18:15:00,
2013-09-06 14:20:00,91.0,85.1,30.16,SW,225,0.0,3.0,83,0.00,,,0.01,Weather View 32 v70,2013-09-06 18:20:00,
2013-09-06 14:30:00,90.0,84.1,30.16,SW,225,0.0,3.0,83,0.00,,,0.01,Weather View 32 v70,2013-09-06 18:30:00,
2013-09-06 14:35:00,90.0,84.1,30.15,SW,225,0.0,3.0,83,0.00,,,0.01,Weather View 32 v70,2013-09-06 18:35:00,
2013-09-06 14:40:00,90.0,84.1,30.15,SW,225,0.0,3.0,83,0.00,,,0.01,Weather View 32 v70,2013-09-06 18:40:00,
2013-09-06 14:45:00,91.0,85.1,30.14,West,270,0.0,1.0,83,0.00,,,0.01,Weather View 32 v70,2013-09-06 18:45:00,
2013-09-06 14:50:00,90.0,84.1,30.14,West,270,0.0,1.0,83,0.00,,,0.01,Weather View 32 v70,2013-09-06 18:50:00,
2013-09-06 14:55:00,91.0,85.1,30.14,West,270,0.0,1.0,83,0.00,,,0.01,Weather View 32 v70,2013-09-06 18:55:00,
2013-09-06 15:05:00,91.0,85.1,30.13,West,270,0.0,0.0,83,0.00,,,0.01,Weather View 32 v70,2013-09-06 19:05:00,
2013-09-06 15:10:00,91.0,85.1,30.13,SE,135,0.0,0.0,83,0.00,,,0.01,Weather View 32 v70,2013-09-06 19:10:00,
2013-09-06 15:15:00,91.0,85.1,30.12,West,270,0.0,3.0,83,0.00,,,0.01,Weather View 32 v70,2013-09-06 19:15:00,
2013-09-06 15:20:00,91.0,85.1,30.12,West,270,0.0,3.0,83,0.00,,,0.01,Weather View 32 v70,2013-09-06 19:20:00,
2013-09-06 15:25:00,91.0,85.1,30.12,West,270,0.0,3.0,83,0.00,,,0.01,Weather View 32 v70,2013-09-06 19:25:00,
2013-09-06 15:35:00,91.0,85.1,30.12,West,270,0.0,3.0,83,0.00,,,0.01,Weather View 32 v70,2013-09-06 19:35:00,
2013-09-06 15:40:00,91.0,85.1,30.12,West,270,0.0,4.0,83,0.00,,,0.01,Weather View 32 v70,2013-09-06 19:40:00,
2013-09-06 15:45:00,92.0,86.4,30.11,SE,135,0.0,4.0,84,0.00,,,0.01,Weather View 32 v70,2013-09-06 19:45:00,
2013-09-06 15:50:00,92.0,86.4,30.11,SE,135,0.0,4.0,84,0.00,,,0.01,Weather View 32 v70,2013-09-06 19:50:00,
2013-09-06 15:55:00,92.0,86.4,30.11,SW,225,0.0,4.0,84,0.00,,,0.01,Weather View 32 v70,2013-09-06 19:55:00,
2013-09-06 16:00:00,92.0,86.4,30.11,SW,225,0.0,4.0,84,0.00,,,0.01,Weather View 32 v70,2013-09-06 20:00:00,
2013-09-06 16:10:00,92.0,86.4,30.11,East,90,0.0,4.0,84,0.00,,,0.01,Weather View 32 v70,2013-09-06 20:10:00,
2013-09-06 16:15:00,91.0,85.1,30.12,East,90,0.0,4.0,83,0.00,,,0.01,Weather View 32 v70,2013-09-06 20:15:00,
2013-09-06 16:21:00,90.0,84.1,30.12,East,90,0.0,4.0,83,0.00,,,0.01,Weather View 32 v70,2013-09-06 20:21:00,
2013-09-06 16:26:00,90.0,84.1,30.13,East,90,0.0,4.0,83,0.00,,,0.01,Weather View 32 v70,2013-09-06 20:26:00,
2013-09-06 16:31:00,89.0,83.1,30.13,East,90,0.0,4.0,83,0.00,,,0.01,Weather View 32 v70,2013-09-06 20:31:00,
2013-09-06 16:36:00,88.0,82.2,30.12,North,360,0.0,4.0,83,0.00,,,0.01,Weather View 32 v70,2013-09-06 20:36:00,
2013-09-06 16:41:00,88.0,82.2,30.12,North,360,0.0,0.0,83,0.00,,,0.01,Weather View 32 v70,2013-09-06 20:41:00,
2013-09-06 16:46:00,88.0,82.2,30.12,NW,315,0.0,0.0,83,0.00,,,0.01,Weather View 32 v70,2013-09-06 20:46:00,
2013-09-06 16:51:00,87.0,81.2,30.12,West,270,0.0,0.0,83,0.00,,,0.01,Weather View 32 v70,2013-09-06 20:51:00,
2013-09-06 16:56:00,87.0,81.2,30.12,West,270,0.0,0.0,83,0.00,,,0.01,Weather View 32 v70,2013-09-06 20:56:00,
2013-09-06 17:01:00,86.0,80.2,30.12,West,270,0.0,0.0,83,0.00,,,0.01,Weather View 32 v70,2013-09-06 21:01:00,
2013-09-06 17:11:00,85.0,79.2,30.13,West,270,0.0,0.0,83,0.00,,,0.01,Weather View 32 v70,2013-09-06 21:11:00,
2013-09-06 17:16:00,84.0,78.3,30.14,West,270,0.0,0.0,83,0.00,,,0.01,Weather View 32 v70,2013-09-06 21:16:00,
2013-09-06 17:25:00,83.0,76.9,30.14,West,270,0.0,0.0,82,0.00,,,0.01,Weather View 32 v70,2013-09-06 21:25:00,
2013-09-06 17:30:00,83.0,76.9,30.14,West,270,0.0,0.0,82,0.00,,,0.01,Weather View 32 v70,2013-09-06 21:30:00,
2013-09-06 17:35:00,82.0,75.9,30.14,West,270,0.0,0.0,82,0.00,,,0.01,Weather View 32 v70,2013-09-06 21:35:00,
2013-09-06 17:40:00,82.0,75.9,30.14,West,270,0.0,0.0,82,0.00,,,0.01,Weather View 32 v70,2013-09-06 21:40:00,
2013-09-06 17:45:00,81.0,75.0,30.15,West,270,0.0,0.0,82,0.00,,,0.01,Weather View 32 v70,2013-09-06 21:45:00,
2013-09-06 17:50:00,81.0,75.0,30.15,West,270,0.0,0.0,82,0.00,,,0.01,Weather View 32 v70,2013-09-06 21:50:00,
2013-09-06 17:55:00,80.0,74.0,30.15,West,270,0.0,0.0,82,0.00,,,0.01,Weather View 32 v70,2013-09-06 21:55:00,
2013-09-06 18:00:00,80.0,74.0,30.15,West,270,0.0,0.0,82,0.00,,,0.01,Weather View 32 v70,2013-09-06 22:00:00,
2013-09-06 18:10:00,79.0,73.0,30.14,West,270,0.0,0.0,82,0.00,,,0.01,Weather View 32 v70,2013-09-06 22:10:00,
2013-09-06 18:15:00,79.0,73.0,30.15,West,270,0.0,0.0,82,0.00,,,0.01,Weather View 32 v70,2013-09-06 22:15:00,
2013-09-06 18:20:00,79.0,73.0,30.15,West,270,0.0,0.0,82,0.00,,,0.01,Weather View 32 v70,2013-09-06 22:20:00,
2013-09-06 18:25:00,78.0,72.0,30.15,West,270,0.0,0.0,82,0.00,,,0.01,Weather View 32 v70,2013-09-06 22:25:00,
2013-09-06 18:30:00,78.0,72.0,30.15,West,270,0.0,0.0,82,0.00,,,0.01,Weather View 32 v70,2013-09-06 22:30:00,
2013-09-06 18:35:00,78.0,72.0,30.15,West,270,0.0,0.0,82,0.00,,,0.01,Weather View 32 v70,2013-09-06 22:35:00,
2013-09-06 18:40:00,78.0,72.0,30.15,West,270,0.0,0.0,82,0.00,,,0.01,Weather View 32 v70,2013-09-06 22:40:00,
2013-09-06 18:45:00,77.0,71.1,30.15,West,270,0.0,0.0,82,0.00,,,0.01,Weather View 32 v70,2013-09-06 22:45:00,
2013-09-06 18:50:00,77.0,70.7,30.15,West,270,0.0,0.0,81,0.00,,,0.01,Weather View 32 v70,2013-09-06 22:50:00,
2013-09-06 18:55:00,77.0,71.1,30.15,West,270,0.0,0.0,82,0.00,,,0.01,Weather View 32 v70,2013-09-06 22:55:00,
2013-09-06 19:05:00,77.0,71.1,30.16,West,270,0.0,0.0,82,0.00,,,0.01,Weather View 32 v70,2013-09-06 23:05:00,
2013-09-06 19:10:00,76.0,69.7,30.16,West,270,0.0,0.0,81,0.00,,,0.01,Weather View 32 v70,2013-09-06 23:10:00,
2013-09-06 19:15:00,76.0,70.1,30.16,West,270,0.0,0.0,82,0.00,,,0.01,Weather View 32 v70,2013-09-06 23:15:00,
2013-09-06 19:20:00,76.0,69.7,30.16,West,270,0.0,0.0,81,0.00,,,0.01,Weather View 32 v70,2013-09-06 23:20:00,
2013-09-06 19:25:00,76.0,69.7,30.16,West,270,0.0,0.0,81,0.00,,,0.01,Weather View 32 v70,2013-09-06 23:25:00,
2013-09-06 19:30:00,75.0,68.4,30.16,West,270,0.0,0.0,80,0.00,,,0.01,Weather View 32 v70,2013-09-06 23:30:00,
2013-09-06 19:35:00,75.0,68.4,30.16,West,270,0.0,0.0,80,0.00,,,0.01,Weather View 32 v70,2013-09-06 23:35:00,
2013-09-06 19:45:00,75.0,68.4,30.16,West,270,0.0,0.0,80,0.00,,,0.01,Weather View 32 v70,2013-09-06 23:45:00,
2013-09-06 19:50:00,74.0,67.4,30.16,West,270,0.0,0.0,80,0.00,,,0.01,Weather View 32 v70,2013-09-06 23:50:00,
2013-09-06 19:55:00,74.0,67.4,30.17,West,270,0.0,0.0,80,0.00,,,0.01,Weather View 32 v70,2013-09-06 23:55:00,
2013-09-06 20:00:00,74.0,67.4,30.17,West,270,0.0,0.0,80,0.00,,,0.01,Weather View 32 v70,2013-09-07 00:00:00,
2013-09-06 20:05:00,74.0,67.4,30.18,West,270,0.0,0.0,80,0.00,,,0.01,Weather View 32 v70,2013-09-07 00:05:00,
2013-09-06 20:15:00,73.0,66.4,30.18,West,270,0.0,0.0,80,0.00,,,0.01,Weather View 32 v70,2013-09-07 00:15:00,
2013-09-06 20:20:00,73.0,66.4,30.18,West,270,0.0,0.0,80,0.00,,,0.01,Weather View 32 v70,2013-09-07 00:20:00,
2013-09-06 20:25:00,73.0,66.4,30.18,West,270,0.0,0.0,80,0.00,,,0.01,Weather View 32 v70,2013-09-07 00:25:00,
2013-09-06 20:30:00,73.0,66.4,30.18,West,270,0.0,0.0,80,0.00,,,0.01,Weather View 32 v70,2013-09-07 00:30:00,
2013-09-06 20:35:00,72.0,65.5,30.19,West,270,0.0,0.0,80,0.00,,,0.01,Weather View 32 v70,2013-09-07 00:35:00,
2013-09-06 20:40:00,72.0,65.5,30.19,West,270,0.0,0.0,80,0.00,,,0.01,Weather View 32 v70,2013-09-07 00:40:00,
2013-09-06 20:45:00,72.0,65.5,30.20,West,270,0.0,0.0,80,0.00,,,0.01,Weather View 32 v70,2013-09-07 00:45:00,
2013-09-06 20:55:00,72.0,65.5,30.20,West,270,0.0,0.0,80,0.00,,,0.01,Weather View 32 v70,2013-09-07 00:55:00,
2013-09-06 21:00:00,72.0,65.1,30.20,West,270,0.0,0.0,79,0.00,,,0.01,Weather View 32 v70,2013-09-07 01:00:00,
2013-09-06 21:05:00,72.0,65.5,30.20,West,270,0.0,0.0,80,0.00,,,0.01,Weather View 32 v70,2013-09-07 01:05:00,
2013-09-06 21:10:00,72.0,65.1,30.20,West,270,0.0,0.0,79,0.00,,,0.01,Weather View 32 v70,2013-09-07 01:10:00,
2013-09-06 21:15:00,71.0,64.5,30.20,West,270,0.0,0.0,80,0.00,,,0.01,Weather View 32 v70,2013-09-07 01:15:00,
2013-09-06 21:20:00,71.0,64.1,30.20,West,270,0.0,0.0,79,0.00,,,0.01,Weather View 32 v70,2013-09-07 01:20:00,
2013-09-06 21:30:00,71.0,63.8,30.20,West,270,0.0,0.0,78,0.00,,,0.01,Weather View 32 v70,2013-09-07 01:30:00,
2013-09-06 21:35:00,71.0,64.5,30.21,West,270,0.0,0.0,80,0.00,,,0.01,Weather View 32 v70,2013-09-07 01:35:00,
2013-09-06 21:40:00,71.0,63.8,30.21,West,270,0.0,0.0,78,0.00,,,0.01,Weather View 32 v70,2013-09-07 01:40:00,
2013-09-06 21:45:00,71.0,64.5,30.21,West,270,0.0,0.0,80,0.00,,,0.01,Weather View 32 v70,2013-09-07 01:45:00,
2013-09-06 21:55:00,71.0,64.5,30.21,West,270,0.0,0.0,80,0.00,,,0.01,Weather View 32 v70,2013-09-07 01:55:00,
2013-09-06 22:00:00,71.0,63.8,30.21,West,270,0.0,0.0,78,0.00,,,0.01,Weather View 32 v70,2013-09-07 02:00:00,
2013-09-06 22:05:00,70.0,63.5,30.22,West,270,0.0,0.0,80,0.00,,,0.01,Weather View 32 v70,2013-09-07 02:05:00,
2013-09-06 22:10:00,70.0,62.8,30.22,West,270,0.0,0.0,78,0.00,,,0.01,Weather View 32 v70,2013-09-07 02:10:00,
2013-09-06 22:15:00,70.0,63.5,30.22,West,270,0.0,0.0,80,0.00,,,0.01,Weather View 32 v70,2013-09-07 02:15:00,
2013-09-06 22:20:00,70.0,62.8,30.22,West,270,0.0,0.0,78,0.00,,,0.01,Weather View 32 v70,2013-09-07 02:20:00,
2013-09-06 22:25:00,70.0,63.5,30.22,West,270,0.0,0.0,80,0.00,,,0.01,Weather View 32 v70,2013-09-07 02:25:00,
2013-09-06 22:30:00,70.0,62.8,30.22,West,270,0.0,0.0,78,0.00,,,0.01,Weather View 32 v70,2013-09-07 02:30:00,
2013-09-06 22:40:00,70.0,62.8,30.22,West,270,0.0,0.0,78,0.00,,,0.01,Weather View 32 v70,2013-09-07 02:40:00,
2013-09-06 22:45:00,70.0,63.5,30.22,West,270,0.0,0.0,80,0.00,,,0.01,Weather View 32 v70,2013-09-07 02:45:00,
2013-09-06 22:50:00,70.0,62.8,30.22,West,270,0.0,0.0,78,0.00,,,0.01,Weather View 32 v70,2013-09-07 02:50:00,
2013-09-06 22:55:00,70.0,63.5,30.22,West,270,0.0,0.0,80,0.00,,,0.01,Weather View 32 v70,2013-09-07 02:55:00,
2013-09-06 23:00:00,70.0,62.8,30.22,West,270,0.0,0.0,78,0.00,,,0.01,Weather View 32 v70,2013-09-07 03:00:00,
2013-09-06 23:05:00,70.0,63.5,30.23,West,270,0.0,0.0,80,0.00,,,0.01,Weather View 32 v70,2013-09-07 03:05:00,
2013-09-06 23:15:00,70.0,63.5,30.23,West,270,0.0,0.0,80,0.00,,,0.01,Weather View 32 v70,2013-09-07 03:15:00,
2013-09-06 23:20:00,70.0,62.8,30.23,West,270,0.0,0.0,78,0.00,,,0.01,Weather View 32 v70,2013-09-07 03:20:00,
2013-09-06 23:25:00,70.0,63.5,30.23,West,270,0.0,0.0,80,0.00,,,0.01,Weather View 32 v70,2013-09-07 03:25:00,
2013-09-06 23:30:00,70.0,62.8,30.23,West,270,0.0,0.0,78,0.00,,,0.01,Weather View 32 v70,2013-09-07 03:30:00,
2013-09-06 23:35:00,69.0,62.2,30.22,West,270,0.0,0.0,79,0.00,,,0.01,Weather View 32 v70,2013-09-07 03:35:00,
2013-09-06 23:40:00,69.0,61.5,30.22,West,270,0.0,0.0,77,0.00,,,0.01,Weather View 32 v70,2013-09-07 03:40:00,
2013-09-06 23:45:00,69.0,62.2,30.22,West,270,0.0,0.0,79,0.00,,,0.01,Weather View 32 v70,2013-09-07 03:45:00,
2013-09-06 23:55:00,69.0,62.2,30.22,West,270,0.0,0.0,79,0.00,,,0.01,Weather View 32 v70,2013-09-07 03:55:00,